Time;durP1;ratioP1;P1;durP2;ratioP2;P2;SDS_P1;SDS_P2;PMS_P1;PMS_P2;Temp;Humidity;BMP_temperature;BMP_pressure;BME280_temperature;BME280_humidity;BME280_pressure;Samples;Min_cycle;Max_cycle;Signal;HPM_P1;HPM_P2
2022/07/28 00:00:54;;;;;;;3.20;2.42;;;;;;;;;;10400759;28;20033;-54
2022/07/28 00:05:55;;;;;;;3.75;2.10;;;;;;;;;;10415961;28;20033;-49
2022/07/28 00:10:55;;;;;;;1.88;1.70;;;;;;;;;;10420459;28;20045;-57
2022/07/28 00:15:56;;;;;;;5.50;1.98;;;;;;;;;;10428985;28;20512;-53
2022/07/28 00:20:57;;;;;;;3.80;1.83;;;;;;;;;;10442328;28;20028;-56
2022/07/28 00:25:57;;;;;;;3.00;1.60;;;;;;;;;;10448614;28;20037;-56
2022/07/28 00:30:58;;;;;;;4.80;1.70;;;;;;;;;;10439926;28;20067;-53
2022/07/28 00:35:59;;;;;;;3.60;2.00;;;;;;;;;;10450317;28;20283;-49
2022/07/28 00:41:12;;;;;;;2.40;1.90;;;;;;;;;;10437913;28;20400;-49
2022/07/28 00:46:14;;;;;;;2.78;1.70;;;;;;;;;;10429803;28;20029;-53
2022/07/28 00:51:17;;;;;;;2.40;2.05;;;;;;;;;;10439793;28;20036;-50
2022/07/28 00:56:19;;;;;;;3.05;2.20;;;;;;;;;;10447997;28;20057;-50
2022/07/28 01:01:21;;;;;;;1.67;1.58;;;;;;;;;;10437786;28;20036;-50
2022/07/28 01:06:48;;;;;;;3.80;1.88;;;;;;;;;;10444428;28;20094;-50
2022/07/28 01:12:35;;;;;;;2.33;1.83;;;;;;;;;;10439458;28;20053;-51
2022/07/28 01:17:52;;;;;;;2.00;1.57;;;;;;;;;;10448006;28;20027;-50
2022/07/28 01:23:11;;;;;;;2.40;1.70;;;;;;;;;;10441021;28;20045;-53
2022/07/28 01:28:22;;;;;;;1.50;1.40;;;;;;;;;;10436736;28;20369;-51
2022/07/28 01:33:46;;;;;;;2.55;1.50;;;;;;;;;;10447085;28;20033;-50
2022/07/28 01:38:48;;;;;;;3.50;1.42;;;;;;;;;;10437075;28;20087;-51
2022/07/28 01:44:04;;;;;;;3.45;1.52;;;;;;;;;;10426506;28;20084;-50
2022/07/28 01:49:07;;;;;;;1.95;1.50;;;;;;;;;;10414525;28;20038;-50
2022/07/28 01:54:09;;;;;;;2.47;1.80;;;;;;;;;;10430000;28;20025;-50
2022/07/28 01:59:11;;;;;;;2.08;1.33;;;;;;;;;;10432439;28;20087;-56
2022/07/28 02:04:17;;;;;;;2.15;1.65;;;;;;;;;;10428647;28;20028;-55
2022/07/28 02:09:20;;;;;;;1.88;1.42;;;;;;;;;;10419616;28;20461;-54
2022/07/28 02:14:23;;;;;;;2.20;1.50;;;;;;;;;;10426173;28;20527;-53
2022/07/28 02:19:25;;;;;;;2.17;1.50;;;;;;;;;;10429361;28;20067;-60
2022/07/28 02:24:27;;;;;;;1.63;1.38;;;;;;;;;;10419581;28;20555;-60
2022/07/28 02:29:32;;;;;;;1.52;1.30;;;;;;;;;;10446916;28;20392;-57
2022/07/28 02:34:37;;;;;;;2.53;1.60;;;;;;;;;;10450309;28;20032;-57
2022/07/28 02:39:50;;;;;;;2.53;1.48;;;;;;;;;;10412971;28;20041;-56
2022/07/28 02:44:57;;;;;;;8.57;1.50;;;;;;;;;;10435829;28;20036;-53
2022/07/28 02:50:01;;;;;;;1.73;1.43;;;;;;;;;;10414972;28;20159;-52
2022/07/28 02:55:03;;;;;;;1.25;1.15;;;;;;;;;;10416490;28;20196;-56
2022/07/28 03:00:04;;;;;;;1.77;1.30;;;;;;;;;;10448794;28;20040;-59
2022/07/28 03:05:06;;;;;;;3.00;1.45;;;;;;;;;;10446909;28;20391;-58
2022/07/28 03:10:19;;;;;;;3.30;1.50;;;;;;;;;;10449624;28;20061;-59
2022/07/28 03:15:20;;;;;;;1.90;1.58;;;;;;;;;;10437147;28;20063;-55
2022/07/28 03:20:21;;;;;;;1.40;1.30;;;;;;;;;;10447811;28;20482;-57
2022/07/28 03:25:49;;;;;;;3.60;1.58;;;;;;;;;;10444853;28;20045;-52
2022/07/28 03:31:03;;;;;;;5.97;1.40;;;;;;;;;;10434527;28;20037;-54
2022/07/28 03:36:15;;;;;;;3.83;1.40;;;;;;;;;;10452018;28;20039;-59
2022/07/28 03:41:18;;;;;;;2.30;1.50;;;;;;;;;;10420527;28;20124;-55
2022/07/28 03:46:20;;;;;;;2.20;1.30;;;;;;;;;;10453402;28;20039;-51
2022/07/28 03:51:20;;;;;;;4.22;1.80;;;;;;;;;;10433927;28;20357;-58
2022/07/28 03:56:21;;;;;;;1.63;1.35;;;;;;;;;;10437652;28;20029;-57
2022/07/28 04:01:22;;;;;;;1.73;1.42;;;;;;;;;;10452480;28;20446;-53
2022/07/28 04:06:22;;;;;;;4.90;1.92;;;;;;;;;;10451361;28;20365;-58
2022/07/28 04:11:23;;;;;;;3.78;1.45;;;;;;;;;;10452000;28;20025;-52
2022/07/28 04:16:23;;;;;;;1.55;1.40;;;;;;;;;;10446778;28;20040;-59
2022/07/28 04:21:24;;;;;;;6.15;1.30;;;;;;;;;;10451816;28;20036;-60
2022/07/28 04:26:25;;;;;;;1.20;1.10;;;;;;;;;;10449217;28;20174;-57
2022/07/28 04:31:25;;;;;;;2.20;1.30;;;;;;;;;;10433535;28;20079;-60
2022/07/28 04:36:26;;;;;;;1.92;1.40;;;;;;;;;;10444105;28;20468;-54
2022/07/28 04:41:27;;;;;;;2.35;1.38;;;;;;;;;;10440592;28;20033;-56
2022/07/28 04:46:27;;;;;;;1.67;1.33;;;;;;;;;;10450516;28;20443;-52
2022/07/28 04:51:28;;;;;;;5.72;1.60;;;;;;;;;;10440567;28;20074;-51
2022/07/28 04:56:28;;;;;;;1.58;1.20;;;;;;;;;;10440534;28;20036;-53
2022/07/28 05:01:29;;;;;;;1.40;1.30;;;;;;;;;;10442883;28;20025;-55
2022/07/28 05:06:30;;;;;;;2.35;1.20;;;;;;;;;;10448126;28;20037;-56
2022/07/28 05:11:30;;;;;;;5.65;1.50;;;;;;;;;;10446926;28;20029;-52
2022/07/28 05:16:31;;;;;;;2.42;1.30;;;;;;;;;;10449622;28;20098;-60
2022/07/28 05:21:31;;;;;;;1.25;1.13;;;;;;;;;;10449295;28;20044;-50
2022/07/28 05:26:32;;;;;;;1.50;1.05;;;;;;;;;;10448345;28;20412;-60
2022/07/28 05:31:32;;;;;;;5.20;1.42;;;;;;;;;;10440167;28;20082;-60
2022/07/28 05:36:35;;;;;;;6.50;2.05;;;;;;;;;;10442958;28;20017;-55
2022/07/28 05:41:35;;;;;;;12.30;2.83;;;;;;;;;;10441080;28;20476;-57
2022/07/28 05:46:36;;;;;;;5.97;2.33;;;;;;;;;;10448554;28;20146;-60
2022/07/28 05:51:36;;;;;;;42.05;5.68;;;;;;;;;;10441797;28;20032;-59
2022/07/28 05:56:37;;;;;;;48.20;6.13;;;;;;;;;;10442832;28;20029;-58
2022/07/28 06:01:37;;;;;;;41.72;5.95;;;;;;;;;;10445708;28;20484;-57
2022/07/28 06:06:38;;;;;;;38.67;5.38;;;;;;;;;;10440032;28;20029;-55
2022/07/28 06:11:39;;;;;;;27.50;4.10;;;;;;;;;;10415288;28;20029;-60
2022/07/28 06:16:39;;;;;;;37.60;5.28;;;;;;;;;;10418450;28;20044;-56
2022/07/28 06:21:40;;;;;;;24.45;4.00;;;;;;;;;;10425021;28;20040;-56
2022/07/28 06:26:40;;;;;;;23.10;4.30;;;;;;;;;;10437454;28;20076;-60
2022/07/28 06:31:41;;;;;;;19.38;3.80;;;;;;;;;;10432926;28;20025;-58
2022/07/28 06:36:42;;;;;;;23.55;3.88;;;;;;;;;;10445014;28;20029;-55
2022/07/28 06:41:43;;;;;;;22.15;3.85;;;;;;;;;;10443760;28;20094;-57
2022/07/28 06:46:44;;;;;;;17.60;3.80;;;;;;;;;;10439946;28;20495;-53
2022/07/28 06:51:44;;;;;;;18.63;4.18;;;;;;;;;;10424978;28;20037;-60
2022/07/28 06:56:45;;;;;;;15.32;3.13;;;;;;;;;;10416669;28;20228;-56
2022/07/28 07:01:45;;;;;;;15.82;3.85;;;;;;;;;;10421188;28;20025;-56
2022/07/28 07:06:46;;;;;;;14.07;2.97;;;;;;;;;;10440659;28;20398;-57
2022/07/28 07:11:47;;;;;;;9.30;3.00;;;;;;;;;;10446056;28;20151;-60
2022/07/28 07:16:47;;;;;;;13.57;3.20;;;;;;;;;;10441861;28;20032;-59
2022/07/28 07:21:48;;;;;;;6.35;2.72;;;;;;;;;;10442908;28;20072;-60
2022/07/28 07:26:49;;;;;;;12.63;3.38;;;;;;;;;;10446860;28;20060;-58
2022/07/28 07:31:51;;;;;;;13.82;3.03;;;;;;;;;;10431015;28;20063;-59
2022/07/28 07:36:51;;;;;;;8.55;3.03;;;;;;;;;;10417574;28;20026;-58
2022/07/28 07:41:52;;;;;;;7.32;2.70;;;;;;;;;;10430805;28;20025;-57
2022/07/28 07:46:52;;;;;;;12.98;2.58;;;;;;;;;;10443541;28;20587;-59
2022/07/28 07:51:53;;;;;;;10.60;2.83;;;;;;;;;;10430124;28;20526;-53
2022/07/28 07:56:54;;;;;;;6.90;3.00;;;;;;;;;;10433931;28;20488;-53
2022/07/28 08:01:54;;;;;;;6.13;3.17;;;;;;;;;;10433160;28;20037;-53
2022/07/28 08:06:55;;;;;;;5.32;3.10;;;;;;;;;;10445638;28;20040;-58
2022/07/28 08:11:55;;;;;;;6.43;3.08;;;;;;;;;;10443839;28;20021;-56
2022/07/28 08:16:58;;;;;;;3.95;2.80;;;;;;;;;;10443327;28;20032;-57
2022/07/28 08:22:01;;;;;;;7.25;3.20;;;;;;;;;;10443972;28;20039;-54
2022/07/28 08:27:02;;;;;;;12.25;3.53;;;;;;;;;;10433298;28;20045;-55
2022/07/28 08:32:03;;;;;;;8.35;3.00;;;;;;;;;;10422899;28;20079;-58
2022/07/28 08:37:05;;;;;;;17.30;3.58;;;;;;;;;;10423409;28;20026;-59
2022/07/28 08:42:16;;;;;;;8.20;3.55;;;;;;;;;;10429779;28;20036;-54
2022/07/28 08:47:19;;;;;;;11.50;3.17;;;;;;;;;;10421242;28;20122;-57
2022/07/28 08:52:22;;;;;;;13.48;3.92;;;;;;;;;;10429051;28;20064;-59
2022/07/28 08:57:33;;;;;;;8.43;3.80;;;;;;;;;;10438323;28;20496;-56
2022/07/28 09:02:41;;;;;;;8.65;3.40;;;;;;;;;;10420782;28;20022;-57
2022/07/28 09:07:43;;;;;;;8.40;4.05;;;;;;;;;;10421241;28;20515;-57
2022/07/28 09:12:44;;;;;;;7.68;3.50;;;;;;;;;;10419184;28;20028;-59
2022/07/28 09:17:44;;;;;;;9.65;3.92;;;;;;;;;;10437318;28;20025;-59
2022/07/28 09:23:03;;;;;;;4.00;3.40;;;;;;;;;;10439325;28;20480;-58
2022/07/28 09:28:17;;;;;;;12.07;3.75;;;;;;;;;;10425692;28;20041;-58
2022/07/28 09:33:28;;;;;;;9.32;3.22;;;;;;;;;;10437416;28;20041;-57
2022/07/28 09:38:39;;;;;;;4.50;3.30;;;;;;;;;;10429543;28;20037;-53
2022/07/28 09:43:44;;;;;;;21.05;3.70;;;;;;;;;;10447281;28;20060;-58
2022/07/28 09:48:47;;;;;;;8.45;3.03;;;;;;;;;;10441252;28;20037;-52
2022/07/28 09:53:49;;;;;;;11.30;3.38;;;;;;;;;;10438082;28;20158;-59
2022/07/28 09:58:56;;;;;;;10.25;3.22;;;;;;;;;;10442557;28;20564;-53
2022/07/28 10:03:58;;;;;;;6.55;3.20;;;;;;;;;;10439542;28;20064;-55
2022/07/28 10:09:06;;;;;;;7.22;2.90;;;;;;;;;;10439666;28;20041;-59
2022/07/28 10:14:07;;;;;;;11.50;3.20;;;;;;;;;;10444256;28;20087;-57
2022/07/28 10:19:07;;;;;;;8.77;3.35;;;;;;;;;;10436849;28;20472;-59
2022/07/28 10:24:12;;;;;;;8.07;2.97;;;;;;;;;;10441520;28;20412;-53
2022/07/28 10:29:16;;;;;;;7.03;3.67;;;;;;;;;;10444478;28;20493;-53
2022/07/28 10:34:28;;;;;;;7.00;3.20;;;;;;;;;;10416175;28;20033;-53
2022/07/28 10:39:42;;;;;;;8.38;3.33;;;;;;;;;;10424516;28;20033;-51
2022/07/28 10:44:45;;;;;;;9.65;3.40;;;;;;;;;;10423437;28;20032;-51
2022/07/28 10:49:47;;;;;;;8.35;4.28;;;;;;;;;;10438510;28;20103;-57
2022/07/28 10:55:28;;;;;;;7.55;3.60;;;;;;;;;;10441189;28;20156;-54
2022/07/28 11:00:31;;;;;;;12.00;3.88;;;;;;;;;;10451542;28;20037;-55
2022/07/28 11:05:42;;;;;;;6.18;3.95;;;;;;;;;;10447664;28;20025;-52
2022/07/28 11:10:48;;;;;;;10.00;4.30;;;;;;;;;;10451548;28;20493;-59
2022/07/28 11:15:49;;;;;;;8.18;3.70;;;;;;;;;;10446452;28;20108;-58
2022/07/28 11:20:52;;;;;;;8.63;3.70;;;;;;;;;;10445821;28;20037;-59
2022/07/28 11:26:23;;;;;;;5.45;3.78;;;;;;;;;;10447122;28;20176;-58
2022/07/28 11:31:42;;;;;;;10.07;4.00;;;;;;;;;;10427480;28;20100;-59
2022/07/28 11:37:09;;;;;;;6.00;3.95;;;;;;;;;;10433351;28;20091;-59
2022/07/28 11:42:31;;;;;;;4.70;3.65;;;;;;;;;;10422884;28;20041;-58
2022/07/28 11:47:31;;;;;;;9.27;4.43;;;;;;;;;;10427811;28;20067;-59
2022/07/28 11:52:32;;;;;;;7.55;4.07;;;;;;;;;;10431943;28;20036;-59
2022/07/28 11:57:40;;;;;;;11.95;3.97;;;;;;;;;;10443206;28;20079;-57
2022/07/28 12:02:40;;;;;;;8.13;3.88;;;;;;;;;;10443826;28;20047;-58
2022/07/28 12:07:50;;;;;;;8.90;4.00;;;;;;;;;;10445383;28;20029;-59
2022/07/28 12:12:55;;;;;;;9.43;4.00;;;;;;;;;;10436704;28;20103;-59
2022/07/28 12:17:58;;;;;;;12.77;5.07;;;;;;;;;;10431680;28;20108;-58
2022/07/28 12:23:06;;;;;;;10.30;4.78;;;;;;;;;;10427996;28;20448;-55
2022/07/28 12:28:26;;;;;;;8.30;4.30;;;;;;;;;;10425470;28;20029;-58
2022/07/28 12:33:26;;;;;;;8.23;4.78;;;;;;;;;;10419574;28;20040;-57
2022/07/28 12:38:28;;;;;;;11.77;5.45;;;;;;;;;;10419876;28;20048;-55
2022/07/28 12:43:29;;;;;;;12.48;5.28;;;;;;;;;;10406446;28;20022;-56
2022/07/28 12:48:30;;;;;;;9.93;5.20;;;;;;;;;;10420033;28;20469;-60
2022/07/28 12:53:30;;;;;;;9.30;4.72;;;;;;;;;;10412730;28;20029;-60
2022/07/28 12:58:33;;;;;;;7.88;4.82;;;;;;;;;;10412655;28;20469;-56
2022/07/28 13:03:36;;;;;;;8.43;5.03;;;;;;;;;;10417989;28;20128;-56
2022/07/28 13:08:43;;;;;;;14.50;5.10;;;;;;;;;;10430157;28;20022;-54
2022/07/28 13:13:55;;;;;;;10.18;5.50;;;;;;;;;;10445424;28;20033;-57
2022/07/28 13:19:01;;;;;;;12.43;5.68;;;;;;;;;;10439234;28;20250;-52
2022/07/28 13:24:02;;;;;;;17.50;5.28;;;;;;;;;;10423283;28;20504;-52
2022/07/28 13:29:05;;;;;;;6.80;4.80;;;;;;;;;;10448063;28;20021;-56
2022/07/28 13:34:08;;;;;;;7.80;4.70;;;;;;;;;;10435513;28;20021;-54
2022/07/28 13:39:12;;;;;;;6.25;4.97;;;;;;;;;;10437495;28;20020;-56
2022/07/28 13:44:13;;;;;;;9.13;4.38;;;;;;;;;;10428515;28;20029;-55
2022/07/28 13:49:13;;;;;;;195.25;15.88;;;;;;;;;;10449219;28;20029;-60
2022/07/28 13:54:14;;;;;;;17.90;4.70;;;;;;;;;;10421068;28;20034;-56
2022/07/28 13:59:15;;;;;;;20.48;5.45;;;;;;;;;;10445970;28;20029;-53
2022/07/28 14:04:17;;;;;;;17.63;5.13;;;;;;;;;;10423334;28;20033;-55
2022/07/28 14:09:18;;;;;;;12.63;4.55;;;;;;;;;;10433732;28;20400;-58
2022/07/28 14:14:18;;;;;;;16.90;4.95;;;;;;;;;;10419214;28;20036;-55
2022/07/28 14:19:19;;;;;;;7.00;3.95;;;;;;;;;;10415193;28;20021;-54
2022/07/28 14:24:20;;;;;;;9.93;4.82;;;;;;;;;;10433238;28;20044;-53
2022/07/28 14:29:20;;;;;;;6.60;4.72;;;;;;;;;;10447167;28;20052;-55
2022/07/28 14:34:21;;;;;;;15.90;5.05;;;;;;;;;;10449609;28;20025;-54
2022/07/28 14:39:21;;;;;;;8.98;4.53;;;;;;;;;;10452534;28;20030;-54
2022/07/28 14:44:22;;;;;;;5.50;4.30;;;;;;;;;;10450258;28;20036;-52
2022/07/28 14:49:23;;;;;;;4.82;4.13;;;;;;;;;;10454484;28;20029;-54
2022/07/28 14:54:23;;;;;;;11.65;4.22;;;;;;;;;;10429606;28;20032;-55
2022/07/28 14:59:24;;;;;;;5.65;4.22;;;;;;;;;;10432001;28;20033;-55
2022/07/28 15:04:25;;;;;;;9.77;4.53;;;;;;;;;;10443213;28;20041;-50
2022/07/28 15:09:26;;;;;;;7.82;4.28;;;;;;;;;;10431534;28;20253;-50
2022/07/28 15:14:26;;;;;;;6.30;3.90;;;;;;;;;;10437575;28;20109;-49
2022/07/28 15:19:27;;;;;;;6.88;4.18;;;;;;;;;;10445964;28;20037;-49
2022/07/28 15:24:32;;;;;;;5.93;3.97;;;;;;;;;;10433276;28;20053;-52
2022/07/28 15:29:33;;;;;;;7.47;4.47;;;;;;;;;;10420082;28;20362;-51
2022/07/28 15:34:34;;;;;;;8.85;4.88;;;;;;;;;;10420930;28;20115;-52
2022/07/28 15:39:34;;;;;;;7.95;4.38;;;;;;;;;;10428944;28;20029;-49
2022/07/28 15:44:35;;;;;;;6.57;4.07;;;;;;;;;;10425608;28;20029;-52
2022/07/28 15:49:35;;;;;;;4.93;4.05;;;;;;;;;;10431873;28;20376;-53
2022/07/28 15:54:36;;;;;;;6.78;4.40;;;;;;;;;;10440721;28;20020;-51
2022/07/28 15:59:37;;;;;;;9.02;4.10;;;;;;;;;;10453027;28;20035;-57
2022/07/28 16:04:37;;;;;;;5.82;3.83;;;;;;;;;;10452655;28;20159;-58
2022/07/28 16:09:38;;;;;;;7.22;4.28;;;;;;;;;;10451070;28;20013;-53
2022/07/28 16:14:39;;;;;;;6.93;4.47;;;;;;;;;;10451858;28;20056;-57
2022/07/28 16:19:40;;;;;;;11.43;4.90;;;;;;;;;;10451789;28;20032;-56
2022/07/28 16:24:41;;;;;;;8.95;4.30;;;;;;;;;;10450461;28;20045;-53
2022/07/28 16:29:42;;;;;;;5.03;3.70;;;;;;;;;;10451439;28;20180;-53
2022/07/28 16:34:43;;;;;;;6.38;4.05;;;;;;;;;;10452057;28;20087;-54
2022/07/28 16:39:44;;;;;;;5.82;3.95;;;;;;;;;;10428310;28;20454;-50
2022/07/28 16:44:46;;;;;;;7.70;3.95;;;;;;;;;;10436457;28;20037;-55
2022/07/28 16:49:46;;;;;;;5.82;4.10;;;;;;;;;;10438180;28;20041;-54
2022/07/28 16:54:47;;;;;;;7.78;3.90;;;;;;;;;;10436271;28;20036;-52
2022/07/28 16:59:47;;;;;;;9.55;3.95;;;;;;;;;;10432199;28;20052;-52
2022/07/28 17:04:48;;;;;;;5.53;4.13;;;;;;;;;;10435619;28;20028;-55
2022/07/28 17:09:49;;;;;;;8.07;3.67;;;;;;;;;;10433259;28;20029;-52
2022/07/28 17:14:49;;;;;;;5.70;3.80;;;;;;;;;;10446501;28;20033;-55
2022/07/28 17:19:50;;;;;;;4.45;3.70;;;;;;;;;;10442580;28;20176;-55
2022/07/28 17:24:50;;;;;;;4.80;3.55;;;;;;;;;;10436412;28;20071;-52
2022/07/28 17:29:51;;;;;;;6.63;4.10;;;;;;;;;;10434432;28;20025;-54
2022/07/28 17:34:53;;;;;;;10.50;3.88;;;;;;;;;;10440612;28;20028;-55
2022/07/28 17:39:54;;;;;;;12.05;4.03;;;;;;;;;;10426336;28;20396;-53
2022/07/28 17:44:56;;;;;;;9.80;4.10;;;;;;;;;;10437088;28;20252;-54
2022/07/28 17:49:57;;;;;;;6.07;3.85;;;;;;;;;;10433013;28;20036;-51
2022/07/28 18:00:16;;;;;;;7.88;4.18;;;;;;;;;;10442489;28;20477;-55
2022/07/28 18:05:17;;;;;;;7.97;4.38;;;;;;;;;;10418641;28;20032;-57
2022/07/28 18:10:18;;;;;;;10.38;4.35;;;;;;;;;;10430275;28;20024;-56
2022/07/28 18:15:19;;;;;;;12.45;4.32;;;;;;;;;;10444193;28;20368;-57
2022/07/28 18:20:20;;;;;;;6.82;4.03;;;;;;;;;;10442674;28;20037;-55
2022/07/28 18:25:22;;;;;;;7.95;3.95;;;;;;;;;;10431418;28;20092;-58
2022/07/28 18:30:23;;;;;;;8.98;4.07;;;;;;;;;;10426118;28;20128;-55
2022/07/28 18:35:23;;;;;;;6.78;3.90;;;;;;;;;;10415565;28;20516;-57
2022/07/28 18:40:24;;;;;;;7.25;3.92;;;;;;;;;;10410890;28;20175;-52
2022/07/28 18:45:25;;;;;;;8.98;3.70;;;;;;;;;;10416051;28;20057;-57
2022/07/28 18:50:26;;;;;;;6.63;3.35;;;;;;;;;;10428295;28;20400;-54
2022/07/28 18:55:27;;;;;;;5.38;3.13;;;;;;;;;;10433708;28;20090;-56
2022/07/28 19:00:27;;;;;;;15.43;3.65;;;;;;;;;;10446440;28;20029;-55
2022/07/28 19:05:28;;;;;;;5.18;3.47;;;;;;;;;;10434462;28;20032;-56
2022/07/28 19:10:28;;;;;;;7.22;3.20;;;;;;;;;;10445886;28;20028;-56
2022/07/28 19:15:29;;;;;;;4.22;3.17;;;;;;;;;;10446582;28;20459;-56
2022/07/28 19:20:30;;;;;;;5.35;3.40;;;;;;;;;;10450205;28;20537;-55
2022/07/28 19:25:30;;;;;;;4.22;3.35;;;;;;;;;;10453852;28;20048;-55
2022/07/28 19:30:31;;;;;;;5.07;3.17;;;;;;;;;;10444889;28;20040;-56
2022/07/28 19:35:31;;;;;;;6.93;3.90;;;;;;;;;;10445369;28;20079;-57
2022/07/28 19:40:32;;;;;;;5.68;3.00;;;;;;;;;;10449892;28;20029;-58
2022/07/28 19:45:33;;;;;;;6.90;3.20;;;;;;;;;;10451943;28;20429;-60
2022/07/28 19:50:35;;;;;;;6.47;3.30;;;;;;;;;;10452107;28;20400;-54
2022/07/28 19:55:36;;;;;;;3.85;3.08;;;;;;;;;;10442668;28;20111;-58
2022/07/28 20:00:36;;;;;;;4.43;2.92;;;;;;;;;;10445347;28;20043;-57
2022/07/28 20:05:38;;;;;;;5.95;3.03;;;;;;;;;;10444700;28;20082;-57
2022/07/28 20:10:39;;;;;;;3.97;2.90;;;;;;;;;;10432477;28;20022;-57
2022/07/28 20:15:41;;;;;;;6.07;3.08;;;;;;;;;;10432841;28;20083;-57
2022/07/28 20:20:41;;;;;;;9.43;3.00;;;;;;;;;;10432103;28;20029;-57
2022/07/28 20:25:44;;;;;;;9.02;3.25;;;;;;;;;;10436265;28;20142;-55
2022/07/28 20:30:44;;;;;;;10.25;2.97;;;;;;;;;;10442005;28;20099;-56
2022/07/28 20:35:45;;;;;;;8.30;3.30;;;;;;;;;;10444698;28;20029;-53
2022/07/28 20:40:46;;;;;;;14.60;3.45;;;;;;;;;;10434046;28;20125;-54
2022/07/28 20:45:46;;;;;;;7.60;3.22;;;;;;;;;;10441183;28;20362;-53
2022/07/28 20:50:47;;;;;;;12.05;3.40;;;;;;;;;;10440332;28;20040;-53
2022/07/28 20:55:48;;;;;;;10.80;3.47;;;;;;;;;;10424535;28;20049;-55
2022/07/28 21:00:48;;;;;;;5.95;2.85;;;;;;;;;;10433295;28;20059;-52
2022/07/28 21:05:49;;;;;;;6.22;3.38;;;;;;;;;;10433341;28;20095;-52
2022/07/28 21:10:50;;;;;;;8.00;2.97;;;;;;;;;;10445212;28;20021;-50
2022/07/28 21:15:51;;;;;;;3.50;3.00;;;;;;;;;;10433793;28;20059;-52
2022/07/28 21:20:51;;;;;;;6.43;3.10;;;;;;;;;;10436373;28;20033;-52
2022/07/28 21:25:52;;;;;;;7.90;3.38;;;;;;;;;;10435176;28;20061;-52
2022/07/28 21:30:53;;;;;;;9.60;3.53;;;;;;;;;;10411863;28;20728;-52
2022/07/28 21:35:54;;;;;;;4.55;3.20;;;;;;;;;;10416066;28;20091;-54
2022/07/28 21:40:56;;;;;;;9.65;3.45;;;;;;;;;;10412912;28;20535;-55
2022/07/28 21:45:56;;;;;;;4.40;2.80;;;;;;;;;;10422478;28;20068;-53
2022/07/28 21:50:57;;;;;;;5.97;3.38;;;;;;;;;;10419247;28;20411;-55
2022/07/28 21:55:58;;;;;;;8.55;3.30;;;;;;;;;;10437569;28;20366;-57
2022/07/28 22:00:58;;;;;;;9.32;3.42;;;;;;;;;;10446158;28;20389;-56
2022/07/28 22:05:59;;;;;;;6.68;3.47;;;;;;;;;;10438123;28;20033;-54
2022/07/28 22:11:01;;;;;;;4.28;3.08;;;;;;;;;;10434933;28;20075;-58
2022/07/28 22:16:02;;;;;;;12.90;3.70;;;;;;;;;;10441198;28;20036;-52
2022/07/28 22:21:03;;;;;;;15.02;3.85;;;;;;;;;;10444116;28;20543;-54
2022/07/28 22:26:04;;;;;;;12.63;3.50;;;;;;;;;;10447390;28;20048;-54
2022/07/28 22:31:05;;;;;;;8.43;3.45;;;;;;;;;;10444248;28;20037;-55
2022/07/28 22:36:07;;;;;;;10.85;3.72;;;;;;;;;;10446267;28;20036;-53
2022/07/28 22:41:08;;;;;;;5.85;3.45;;;;;;;;;;10444226;28;20139;-51
2022/07/28 22:46:09;;;;;;;7.85;3.03;;;;;;;;;;10430490;28;20033;-53
2022/07/28 22:51:11;;;;;;;8.18;3.17;;;;;;;;;;10444168;28;20029;-53
2022/07/28 22:56:12;;;;;;;4.60;2.88;;;;;;;;;;10445276;28;20031;-53
2022/07/28 23:01:12;;;;;;;3.70;2.78;;;;;;;;;;10443618;28;20306;-57
2022/07/28 23:06:13;;;;;;;6.28;3.03;;;;;;;;;;10444283;28;20035;-49
2022/07/28 23:11:13;;;;;;;5.07;2.67;;;;;;;;;;10450234;28;20450;-49
2022/07/28 23:16:15;;;;;;;6.20;2.80;;;;;;;;;;10452916;28;20083;-49
2022/07/28 23:21:16;;;;;;;11.45;3.00;;;;;;;;;;10453223;28;20037;-50
2022/07/28 23:26:16;;;;;;;6.97;2.80;;;;;;;;;;10454307;28;20484;-48
2022/07/28 23:31:17;;;;;;;8.32;2.88;;;;;;;;;;10450235;28;20491;-56
2022/07/28 23:36:17;;;;;;;4.55;2.70;;;;;;;;;;10437221;28;20468;-52
2022/07/28 23:41:18;;;;;;;4.05;2.53;;;;;;;;;;10451985;28;20464;-51
2022/07/28 23:46:19;;;;;;;4.40;3.05;;;;;;;;;;10453729;28;20025;-56
2022/07/28 23:51:21;;;;;;;4.35;2.50;;;;;;;;;;10451165;28;20538;-56
2022/07/28 23:56:21;;;;;;;4.50;2.72;;;;;;;;;;10438812;28;20048;-56
